This is the latest recevied weather packets stored in our database for station/object M9XDX-WX. If no packets are shown the sender has not sent any weather packets the latest 10 day(s).
| Time | Temp. | Humidity | Pressure | Rain* | Wind** | Luminosity | Snow |
|---|---|---|---|---|---|---|---|
| 1777676403 | 10.56° C | 91% | 1018.8 hPa | 0 mm | - | 0 W/m² | - |
| 1777675803 | 10.56° C | 91% | 1018.9 hPa | 0 mm | - | 0 W/m² | - |
| 1777674604 | 10.56° C | 90% | 1018.8 hPa | 0 mm | - | 0 W/m² | - |
| 1777673403 | 11.11° C | 91% | 1018.7 hPa | 0 mm | - | 0 W/m² | - |
| 1777670403 | 11.11° C | 90% | 1018.6 hPa | 0 mm | - | 0 W/m² | - |
| 1777669941 | 11.11° C | 89% | 1018.6 hPa | 0 mm | - | 0 W/m² | - |
| 1777668003 | 11.67° C | 87% | 1018.5 hPa | 0 mm | - | 0 W/m² | - |
| 1777661403 | 13.33° C | 82% | 1018 hPa | 0 mm | - | 37 W/m² | - |
| 1777660341 | 13.33° C | 83% | 1018.2 hPa | 0 mm | - | 49 W/m² | - |
| 1777657203 | 15° C | 82% | 1018 hPa | 0 mm | - | 99 W/m² | - |
| 1777654940 | 14.44° C | 85% | 1018.1 hPa | 0 mm | - | 101 W/m² | - |
| 1777648203 | 13.89° C | 90% | 1018.8 hPa | 0 mm | - | 73 W/m² | - |
| 1777645803 | 14.44° C | 89% | 1018.6 hPa | 0 mm | - | 171 W/m² | - |
| 1777644003 | 15° C | 87% | 1018.8 hPa | 0 mm | - | 271 W/m² | - |
| 1777642203 | 15° C | 86% | 1019 hPa | 0.25 mm | - | 231 W/m² | - |
| 1777630803 | 17.22° C | 55% | 1018.7 hPa | 0 mm | - | 847 W/m² | - |
| 1777627803 | 16.11° C | 56% | 1018.6 hPa | 0 mm | - | 198 W/m² | - |
| 1777625403 | 15.56° C | 55% | 1018.5 hPa | 0 mm | - | 276 W/m² | - |
| 1777623603 | 14.44° C | 58% | 1018.7 hPa | 0 mm | - | 284 W/m² | - |
| 1777618803 | 13.33° C | 64% | 1018.3 hPa | 0 mm | - | 105 W/m² | - |
| 1777615203 | 12.22° C | 66% | 1018 hPa | 0 mm | - | 64 W/m² | - |
| 1777614603 | 12.22° C | 66% | 1017.9 hPa | 0 mm | - | 45 W/m² | - |
| 1777613403 | 12.22° C | 69% | 1018 hPa | 0 mm | - | 23 W/m² | - |
| 1777610403 | 12.22° C | 66% | 1017.7 hPa | 0 mm | - | 2 W/m² | - |
| 1777609940 | 12.78° C | 67% | 1017.6 hPa | 0 mm | - | 1 W/m² | - |
* Rain latest hour (hover to see other rain measurements)
** Current wind speed in m/s (hover to see current wind gust speed)